Time;durP1;ratioP1;P1;durP2;ratioP2;P2;SDS_P1;SDS_P2;PMS_P1;PMS_P2;Temp;Humidity;BMP_temperature;BMP_pressure;BME280_temperature;BME280_humidity;BME280_pressure;Samples;Min_cycle;Max_cycle;Signal;HPM_P1;HPM_P2
2023/03/15 00:01:38;;;;;;;3.17;1.00;;;4.10;99.90;;;;;;4860115;29;20112;-85
2023/03/15 00:04:04;;;;;;;10.07;1.52;;;3.70;99.90;;;;;;4840542;29;20073;-85
2023/03/15 00:06:33;;;;;;;7.35;1.20;;;3.60;99.90;;;;;;4858298;29;20049;-84
2023/03/15 00:09:00;;;;;;;8.77;1.92;;;3.60;99.90;;;;;;4854403;29;20061;-84
2023/03/15 00:11:29;;;;;;;8.80;1.20;;;3.60;99.90;;;;;;4852586;29;20057;-83
2023/03/15 00:13:57;;;;;;;3.20;1.08;;;3.60;99.90;;;;;;4858998;29;20046;-83
2023/03/15 00:16:25;;;;;;;6.55;1.35;;;2.10;99.90;;;;;;4857004;29;20105;-83
2023/03/15 00:18:57;;;;;;;9.20;1.33;;;3.50;99.90;;;;;;4856130;29;20052;-83
2023/03/15 00:21:25;;;;;;;4.97;1.23;;;3.70;99.90;;;;;;4861878;29;20053;-84
2023/03/15 00:23:51;;;;;;;4.88;1.10;;;3.50;99.90;;;;;;4854030;29;20057;-85
2023/03/15 00:26:17;;;;;;;9.90;1.55;;;3.50;99.90;;;;;;4866677;29;20068;-84
2023/03/15 00:28:51;;;;;;;6.82;1.30;;;4.80;99.90;;;;;;4866259;29;20541;-84
2023/03/15 00:31:23;;;;;;;3.90;1.10;;;3.60;99.90;;;;;;4871367;29;20505;-83
2023/03/15 00:33:52;;;;;;;6.53;1.30;;;3.40;99.90;;;;;;4854580;29;20164;-85
2023/03/15 00:36:22;;;;;;;10.13;1.58;;;3.70;99.90;;;;;;4867990;29;20121;-84
2023/03/15 00:38:49;;;;;;;9.95;1.58;;;3.90;99.90;;;;;;4852968;29;20049;-84
2023/03/15 00:41:17;;;;;;;4.25;1.30;;;3.60;99.90;;;;;;4863444;29;20052;-84
2023/03/15 00:43:43;;;;;;;8.90;1.30;;;;;;;;;;4863813;29;20120;-85
2023/03/15 00:46:10;;;;;;;9.95;1.77;;;3.60;99.90;;;;;;4848654;29;20057;-84
2023/03/15 00:48:37;;;;;;;5.28;1.10;;;3.60;99.90;;;;;;4846993;29;20057;-85
2023/03/15 00:51:08;;;;;;;8.93;1.38;;;4.40;99.90;;;;;;4836344;29;20109;-86
2023/03/15 00:53:37;;;;;;;5.60;1.27;;;3.70;99.90;;;;;;4864488;29;20057;-85
2023/03/15 00:56:05;;;;;;;8.10;1.33;;;3.60;99.90;;;;;;4835835;29;20081;-85
2023/03/15 00:58:31;;;;;;;4.63;1.20;;;;;;;;;;4852004;29;20056;-86
2023/03/15 01:00:59;;;;;;;6.43;1.23;;;3.50;99.90;;;;;;4852887;29;20492;-85
2023/03/15 01:03:26;;;;;;;6.72;1.50;;;2.50;99.90;;;;;;4838216;29;20501;-86
2023/03/15 01:05:52;;;;;;;5.57;1.23;;;3.60;99.90;;;;;;4856707;29;20052;-85
2023/03/15 01:08:18;;;;;;;5.43;1.35;;;3.40;99.90;;;;;;4840944;29;20049;-86
2023/03/15 01:10:43;;;;;;;6.13;1.58;;;3.30;99.90;;;;;;4866597;29;20098;-84
2023/03/15 01:13:09;;;;;;;7.05;1.30;;;3.30;99.90;;;;;;4852282;29;20049;-83
2023/03/15 01:15:35;;;;;;;5.78;1.13;;;3.70;99.90;;;;;;4861062;29;20082;-85
2023/03/15 01:18:01;;;;;;;6.38;1.05;;;3.40;99.90;;;;;;4860879;29;20066;-86
2023/03/15 01:20:27;;;;;;;8.63;1.40;;;3.50;99.90;;;;;;4864385;29;20060;-86
2023/03/15 01:22:53;;;;;;;6.88;1.40;;;3.60;99.90;;;;;;4849134;29;20060;-85
2023/03/15 01:25:19;;;;;;;7.15;1.33;;;3.30;99.90;;;;;;4848675;29;20089;-85
2023/03/15 01:27:45;;;;;;;5.55;1.38;;;3.30;99.90;;;;;;4870960;29;20049;-85
2023/03/15 01:30:11;;;;;;;6.72;1.40;;;3.30;99.90;;;;;;4848578;29;20140;-85
2023/03/15 01:32:37;;;;;;;5.38;1.33;;;3.10;99.90;;;;;;4854385;29;20132;-85
2023/03/15 01:35:03;;;;;;;6.93;1.25;;;3.10;99.90;;;;;;4845872;29;20053;-85
2023/03/15 01:37:29;;;;;;;6.18;1.25;;;3.10;99.90;;;;;;4836697;29;20064;-85
2023/03/15 01:39:55;;;;;;;4.97;1.02;;;3.20;99.90;;;;;;4845869;29;20057;-85
2023/03/15 01:42:21;;;;;;;6.80;1.23;;;3.10;99.90;;;;;;4853469;29;20184;-86
2023/03/15 01:44:47;;;;;;;4.78;0.93;;;3.10;99.90;;;;;;4849369;29;20080;-85
2023/03/15 01:47:13;;;;;;;6.70;1.00;;;3.00;99.90;;;;;;4850773;29;20049;-85
2023/03/15 01:49:40;;;;;;;5.55;1.20;;;3.10;99.90;;;;;;4860800;29;20060;-85
2023/03/15 01:52:08;;;;;;;5.63;2.00;;;3.00;99.90;;;;;;4848931;29;20501;-85
2023/03/15 01:54:49;;;;;;;3.65;0.95;;;3.00;99.90;;;;;;4861366;29;20053;-85
2023/03/15 01:57:35;;;;;;;4.45;1.20;;;3.10;99.90;;;;;;4847442;29;20136;-84
2023/03/15 02:00:13;;;;;;;3.00;0.98;;;2.80;99.90;;;;;;4842044;29;20044;-85
2023/03/15 02:02:45;;;;;;;3.38;0.98;;;2.90;99.90;;;;;;4842166;29;20068;-86
2023/03/15 02:05:25;;;;;;;6.65;1.10;;;2.80;99.90;;;;;;4843499;29;20057;-85
2023/03/15 02:07:53;;;;;;;2.80;1.05;;;3.10;99.90;;;;;;4832364;29;20044;-85
2023/03/15 02:10:58;;;;;;;4.18;1.15;;;4.00;99.90;;;;;;4833501;29;20049;-85
2023/03/15 02:13:27;;;;;;;1.58;0.88;;;4.00;99.90;;;;;;4789948;29;20048;-85
2023/03/15 02:15:53;;;;;;;3.05;1.08;;;4.20;99.90;;;;;;4794848;29;20054;-85
2023/03/15 02:18:20;;;;;;;4.45;1.10;;;2.60;99.90;;;;;;4819335;29;20072;-85
2023/03/15 02:20:49;;;;;;;4.20;1.10;;;2.50;99.90;;;;;;4845074;29;20248;-85
2023/03/15 02:23:19;;;;;;;5.15;1.00;;;2.50;99.90;;;;;;4846966;29;20061;-85
2023/03/15 02:25:50;;;;;;;5.15;0.93;;;4.30;99.90;;;;;;4845405;29;20049;-84
2023/03/15 02:28:17;;;;;;;3.83;0.95;;;2.60;99.90;;;;;;4846120;29;20053;-86
2023/03/15 02:30:45;;;;;;;3.30;1.17;;;2.40;99.90;;;;;;4845361;29;20056;-85
2023/03/15 02:33:25;;;;;;;3.17;1.40;;;2.50;99.90;;;;;;4847690;29;20049;-85
2023/03/15 02:35:51;;;;;;;6.50;1.63;;;2.60;99.90;;;;;;4864703;29;20116;-85
2023/03/15 02:38:17;;;;;;;9.27;1.50;;;1.40;99.90;;;;;;4850549;29;20053;-85
2023/03/15 02:40:47;;;;;;;7.80;2.17;;;2.40;99.90;;;;;;4848743;29;20049;-82
2023/03/15 02:43:22;;;;;;;10.50;1.50;;;2.30;99.90;;;;;;4848400;29;20801;-85
2023/03/15 02:45:49;;;;;;;8.23;1.70;;;2.40;99.90;;;;;;4854380;29;20054;-84
2023/03/15 02:48:16;;;;;;;10.65;1.50;;;2.80;99.90;;;;;;4837990;29;20117;-85
2023/03/15 02:50:42;;;;;;;6.45;1.50;;;2.40;99.90;;;;;;4852518;29;20084;-85
2023/03/15 02:53:08;;;;;;;4.55;1.13;;;2.60;99.90;;;;;;4853382;29;20891;-85
2023/03/15 02:55:34;;;;;;;9.32;1.80;;;2.40;99.90;;;;;;4862408;29;20045;-85
2023/03/15 02:58:01;;;;;;;6.97;1.40;;;0.60;99.90;;;;;;4849258;29;20068;-85
2023/03/15 03:00:28;;;;;;;8.93;1.52;;;2.50;99.90;;;;;;4852472;29;20060;-85
2023/03/15 03:02:54;;;;;;;4.45;1.50;;;2.70;99.90;;;;;;4849137;29;20171;-86
2023/03/15 03:05:20;;;;;;;5.18;2.03;;;2.80;99.90;;;;;;4838252;29;20592;-85
2023/03/15 03:07:49;;;;;;;6.35;1.88;;;2.40;99.90;;;;;;4848034;29;20155;-86
2023/03/15 03:10:16;;;;;;;7.55;1.58;;;2.70;99.90;;;;;;4853335;29;20072;-86
2023/03/15 03:12:42;;;;;;;10.32;1.63;;;1.10;99.90;;;;;;4861659;29;20045;-86
2023/03/15 03:15:10;;;;;;;6.88;1.40;;;2.40;99.90;;;;;;4838939;29;20061;-85
2023/03/15 03:17:37;;;;;;;7.93;1.45;;;2.70;99.90;;;;;;4850463;29;20057;-85
2023/03/15 03:20:10;;;;;;;5.10;1.30;;;2.40;99.90;;;;;;4849795;29;20068;-86
2023/03/15 03:22:36;;;;;;;7.30;1.80;;;2.60;99.90;;;;;;4851176;29;20060;-86
2023/03/15 03:25:05;;;;;;;6.53;1.42;;;2.70;99.90;;;;;;4861176;29;20092;-86
2023/03/15 03:27:35;;;;;;;8.88;1.40;;;;;;;;;;4856086;29;20049;-85
2023/03/15 03:30:07;;;;;;;4.32;0.95;;;2.50;99.90;;;;;;4858081;29;20057;-85
2023/03/15 03:32:33;;;;;;;4.72;1.17;;;2.60;99.90;;;;;;4853503;29;20049;-86
2023/03/15 03:34:59;;;;;;;6.75;1.10;;;2.80;99.90;;;;;;4850600;29;20496;-83
2023/03/15 03:37:26;;;;;;;5.38;1.13;;;2.70;99.90;;;;;;4839263;29;20057;-83
2023/03/15 03:39:54;;;;;;;4.25;0.93;;;2.70;99.90;;;;;;4850586;29;20527;-83
2023/03/15 03:42:20;;;;;;;4.97;1.10;;;2.80;99.90;;;;;;4852379;29;20045;-83
2023/03/15 03:44:45;;;;;;;6.60;1.00;;;2.90;99.90;;;;;;4846827;29;20060;-84
2023/03/15 03:47:11;;;;;;;7.72;1.17;;;3.30;99.90;;;;;;4834313;29;20068;-83
2023/03/15 03:49:37;;;;;;;6.32;1.10;;;1.40;99.90;;;;;;4848285;29;20056;-84
2023/03/15 03:52:03;;;;;;;6.05;1.50;;;3.20;99.90;;;;;;4863974;29;20140;-84
2023/03/15 03:54:30;;;;;;;4.10;1.13;;;3.00;99.90;;;;;;4859210;29;20049;-84
2023/03/15 03:56:56;;;;;;;3.58;1.00;;;3.00;99.90;;;;;;4850930;29;20085;-83
2023/03/15 03:59:22;;;;;;;7.07;1.33;;;3.40;99.90;;;;;;4859453;29;20578;-83
2023/03/15 04:01:48;;;;;;;4.90;1.17;;;3.00;99.90;;;;;;4832320;29;20056;-84
2023/03/15 04:04:14;;;;;;;4.18;1.00;;;3.10;99.90;;;;;;4833809;29;20052;-84
2023/03/15 04:06:44;;;;;;;4.75;1.10;;;3.20;99.90;;;;;;4834372;29;20068;-84
2023/03/15 04:09:13;;;;;;;7.22;1.20;;;3.20;99.90;;;;;;4845917;29;20084;-85
2023/03/15 04:11:43;;;;;;;6.22;1.42;;;3.10;99.90;;;;;;4844770;29;20585;-84
2023/03/15 04:14:11;;;;;;;6.90;1.30;;;3.10;99.90;;;;;;4847136;29;20073;-84
2023/03/15 04:16:37;;;;;;;8.00;1.30;;;3.20;99.90;;;;;;4843310;29;20140;-84
2023/03/15 04:19:03;;;;;;;8.23;1.60;;;3.90;99.90;;;;;;4845457;29;20593;-84
2023/03/15 04:21:32;;;;;;;6.15;1.55;;;3.30;99.90;;;;;;4830827;29;20069;-84
2023/03/15 04:24:01;;;;;;;9.90;1.58;;;3.40;99.90;;;;;;4833302;29;20064;-85
2023/03/15 04:26:28;;;;;;;8.50;2.17;;;3.40;99.90;;;;;;4843622;29;20057;-85
2023/03/15 04:28:55;;;;;;;9.07;1.60;;;3.20;99.90;;;;;;4846819;29;20622;-84
2023/03/15 04:31:25;;;;;;;7.43;1.80;;;3.20;99.90;;;;;;4846239;29;20272;-84
2023/03/15 04:33:55;;;;;;;6.85;1.50;;;3.60;99.90;;;;;;4828863;29;20102;-84
2023/03/15 04:36:22;;;;;;;8.32;1.85;;;3.70;99.90;;;;;;4847023;29;20068;-85
2023/03/15 04:38:48;;;;;;;7.15;1.38;;;3.20;99.90;;;;;;4847951;29;20061;-84
2023/03/15 04:41:16;;;;;;;5.78;2.00;;;3.80;99.90;;;;;;4859338;29;20383;-84
2023/03/15 04:43:43;;;;;;;7.80;1.70;;;3.20;99.90;;;;;;4849502;29;20700;-84
2023/03/15 04:46:10;;;;;;;6.97;1.15;;;3.30;99.90;;;;;;4859333;29;20177;-84
2023/03/15 04:48:36;;;;;;;10.77;1.45;;;3.30;99.90;;;;;;4847760;29;20126;-83
2023/03/15 04:51:02;;;;;;;4.45;1.30;;;3.50;99.90;;;;;;4848554;29;20473;-84
2023/03/15 04:53:28;;;;;;;4.07;1.02;;;;;;;;;;4859545;29;20046;-84
2023/03/15 04:55:54;;;;;;;5.50;1.63;;;3.30;99.90;;;;;;4842683;29;20109;-85
2023/03/15 04:58:20;;;;;;;6.50;1.30;;;3.40;99.90;;;;;;4845673;29;20136;-84
2023/03/15 05:00:46;;;;;;;6.68;1.05;;;3.50;99.90;;;;;;4847680;29;20045;-84
2023/03/15 05:03:12;;;;;;;5.78;1.23;;;1.80;99.90;;;;;;4846716;29;20090;-85
2023/03/15 05:05:38;;;;;;;5.25;1.10;;;2.60;99.90;;;;;;4849293;29;20057;-84
2023/03/15 05:08:04;;;;;;;7.65;1.55;;;3.40;99.90;;;;;;4818290;29;20055;-85
2023/03/15 05:10:31;;;;;;;9.25;1.77;;;3.10;99.90;;;;;;4846205;29;20084;-85
2023/03/15 05:12:57;;;;;;;7.95;1.30;;;3.20;99.90;;;;;;4860201;29;20122;-85
2023/03/15 05:15:24;;;;;;;5.82;1.40;;;3.30;99.90;;;;;;4843958;29;20184;-85
2023/03/15 05:17:53;;;;;;;5.40;1.50;;;3.20;99.90;;;;;;4847768;29;20053;-85
2023/03/15 05:20:20;;;;;;;5.78;1.60;;;3.20;99.90;;;;;;4835457;29;20164;-85
2023/03/15 05:22:46;;;;;;;8.65;1.80;;;3.20;99.90;;;;;;4848712;29;20522;-86
2023/03/15 05:25:12;;;;;;;4.78;1.20;;;3.30;99.90;;;;;;4835370;29;20050;-85
2023/03/15 05:27:38;;;;;;;6.53;1.45;;;4.50;99.90;;;;;;4833264;29;20061;-85
2023/03/15 05:30:11;;;;;;;7.18;1.65;;;3.30;99.90;;;;;;4861711;29;20057;-84
2023/03/15 05:32:38;;;;;;;4.47;1.23;;;3.10;99.90;;;;;;4844504;29;20599;-84
2023/03/15 05:35:05;;;;;;;6.70;1.60;;;3.00;99.90;;;;;;4860254;29;20049;-85
2023/03/15 05:37:32;;;;;;;9.98;1.80;;;3.00;99.90;;;;;;4845563;29;20065;-85
2023/03/15 05:39:59;;;;;;;9.98;1.48;;;2.80;99.90;;;;;;4835598;29;20060;-85
2023/03/15 05:42:25;;;;;;;4.60;1.30;;;2.80;99.90;;;;;;4863195;29;20053;-85
2023/03/15 05:44:52;;;;;;;7.93;1.58;;;2.80;99.90;;;;;;4856558;29;20081;-84
2023/03/15 05:47:18;;;;;;;11.80;1.77;;;2.70;99.90;;;;;;4875913;29;20880;-84
2023/03/15 05:49:44;;;;;;;11.27;1.73;;;2.70;99.90;;;;;;4852709;29;20068;-84
2023/03/15 05:52:10;;;;;;;8.13;1.98;;;2.00;99.90;;;;;;4858737;29;20081;-85
2023/03/15 05:54:35;;;;;;;8.57;1.60;;;2.80;99.90;;;;;;4844428;29;20498;-84
2023/03/15 05:57:02;;;;;;;9.95;1.83;;;2.60;99.90;;;;;;4842347;29;20136;-84
2023/03/15 05:59:27;;;;;;;14.55;1.83;;;3.00;99.90;;;;;;4856695;29;21039;-84
2023/03/15 06:01:53;;;;;;;9.07;1.52;;;2.60;99.90;;;;;;4843870;29;20060;-84
2023/03/15 06:04:22;;;;;;;8.15;1.60;;;2.50;99.90;;;;;;4858275;29;20445;-83
2023/03/15 06:06:48;;;;;;;10.60;1.48;;;2.60;99.90;;;;;;4845971;29;20513;-84
2023/03/15 06:09:14;;;;;;;7.72;2.05;;;2.90;99.90;;;;;;4843568;29;20073;-84
2023/03/15 06:11:40;;;;;;;6.97;1.60;;;3.20;99.90;;;;;;4843175;29;20045;-84
2023/03/15 06:14:06;;;;;;;10.02;2.08;;;2.50;99.90;;;;;;4832150;29;20141;-84
2023/03/15 06:16:32;;;;;;;9.27;1.73;;;2.20;99.90;;;;;;4829825;29;20065;-84
2023/03/15 06:18:58;;;;;;;8.75;1.80;;;2.00;99.90;;;;;;4832173;29;20060;-84
2023/03/15 06:21:24;;;;;;;11.30;2.60;;;1.40;99.90;;;;;;4829933;29;20573;-84
2023/03/15 06:23:49;;;;;;;8.15;1.63;;;2.50;99.90;;;;;;4850171;29;20057;-84
2023/03/15 06:26:18;;;;;;;10.18;2.20;;;3.30;99.90;;;;;;4842586;29;20498;-85
2023/03/15 06:28:44;;;;;;;4.00;1.40;;;2.90;99.90;;;;;;4841957;29;20050;-84
2023/03/15 06:31:12;;;;;;;7.18;1.48;;;1.20;99.90;;;;;;4842170;29;21356;-85
2023/03/15 06:33:39;;;;;;;9.20;1.80;;;2.70;99.90;;;;;;4843593;29;20113;-83
2023/03/15 06:36:05;;;;;;;10.50;1.70;;;3.20;99.90;;;;;;4844514;29;20113;-85
2023/03/15 06:38:31;;;;;;;4.57;0.90;;;3.10;99.90;;;;;;4847230;29;20076;-86
2023/03/15 06:41:03;;;;;;;9.32;1.23;;;4.00;99.90;;;;;;4844548;29;20185;-85
2023/03/15 06:43:30;;;;;;;1.58;0.80;;;3.20;99.90;;;;;;4858460;29;20519;-85
2023/03/15 06:45:58;;;;;;;3.33;0.77;;;3.10;99.90;;;;;;4859638;29;20052;-86
2023/03/15 06:48:25;;;;;;;3.10;0.80;;;3.10;99.90;;;;;;4845967;29;20061;-84
2023/03/15 06:50:51;;;;;;;2.63;0.75;;;2.80;99.90;;;;;;4847462;29;20133;-83
2023/03/15 06:53:16;;;;;;;2.10;0.60;;;3.20;99.90;;;;;;4820330;29;20049;-84
2023/03/15 06:55:43;;;;;;;1.42;0.75;;;2.80;99.90;;;;;;4833672;29;20470;-84
2023/03/15 06:58:09;;;;;;;3.10;0.80;;;;;;;;;;4856192;29;20053;-83
2023/03/15 07:00:37;;;;;;;3.15;0.80;;;2.40;99.90;;;;;;4857301;29;20893;-84
2023/03/15 07:03:03;;;;;;;1.98;0.70;;;2.40;99.90;;;;;;4848461;29;20059;-85
2023/03/15 07:05:29;;;;;;;3.67;0.98;;;2.40;99.90;;;;;;4858630;29;20049;-83
2023/03/15 07:07:55;;;;;;;3.00;0.88;;;3.40;99.90;;;;;;4858459;29;20450;-85
2023/03/15 07:10:20;;;;;;;1.85;0.70;;;2.20;99.90;;;;;;4840849;29;20171;-83
2023/03/15 07:12:46;;;;;;;2.60;0.80;;;1.90;99.90;;;;;;4855592;29;20050;-83
2023/03/15 07:15:12;;;;;;;4.25;0.82;;;2.50;99.90;;;;;;4832481;29;20151;-83
2023/03/15 07:17:41;;;;;;;4.35;0.90;;;3.10;99.90;;;;;;4837107;29;20570;-83
2023/03/15 07:20:07;;;;;;;2.28;0.95;;;2.60;99.90;;;;;;4844278;29;20140;-84
2023/03/15 07:22:33;;;;;;;2.28;1.25;;;2.30;99.90;;;;;;4865742;29;20057;-83
2023/03/15 07:24:59;;;;;;;4.25;1.05;;;2.30;99.90;;;;;;4863887;29;20090;-84
2023/03/15 07:27:25;;;;;;;1.70;0.73;;;2.30;99.90;;;;;;4864176;29;20155;-84
2023/03/15 07:29:51;;;;;;;4.57;1.00;;;2.30;99.90;;;;;;4841847;29;20120;-83
2023/03/15 07:32:17;;;;;;;7.03;0.98;;;2.60;99.90;;;;;;4854936;29;20052;-82
2023/03/15 07:34:43;;;;;;;2.40;1.00;;;2.30;99.90;;;;;;4850713;29;20052;-83
2023/03/15 07:37:09;;;;;;;4.65;1.80;;;3.90;99.90;;;;;;4858048;29;20433;-85
2023/03/15 07:39:35;;;;;;;6.05;1.85;;;2.40;99.90;;;;;;4842043;29;20048;-84
2023/03/15 07:42:00;;;;;;;5.68;1.35;;;2.40;99.90;;;;;;4865475;29;20049;-85
2023/03/15 07:44:26;;;;;;;3.50;1.15;;;;;;;;;;4856789;29;20082;-84
2023/03/15 07:46:53;;;;;;;10.25;1.30;;;2.50;99.90;;;;;;4858026;29;20425;-84
2023/03/15 07:49:19;;;;;;;2.85;1.00;;;2.90;99.90;;;;;;4847385;29;20059;-84
2023/03/15 07:51:45;;;;;;;4.25;1.75;;;2.60;99.90;;;;;;4856486;29;20053;-84
2023/03/15 07:54:11;;;;;;;3.40;1.10;;;3.70;99.90;;;;;;4836985;29;20053;-84
2023/03/15 07:56:36;;;;;;;4.50;1.20;;;2.90;99.90;;;;;;4842504;29;20064;-84
2023/03/15 07:59:02;;;;;;;3.15;1.00;;;3.20;99.90;;;;;;4847605;29;20057;-84
2023/03/15 08:01:28;;;;;;;4.95;1.10;;;3.00;99.90;;;;;;4842486;29;20088;-85
2023/03/15 08:03:54;;;;;;;7.10;1.20;;;3.10;99.90;;;;;;4841257;29;20068;-85
2023/03/15 08:06:20;;;;;;;3.42;1.10;;;3.60;99.90;;;;;;4852830;29;20136;-84
2023/03/15 08:08:46;;;;;;;6.47;1.05;;;3.50;99.90;;;;;;4850913;29;20057;-85
2023/03/15 08:11:12;;;;;;;3.40;1.10;;;3.70;99.90;;;;;;4861752;29;20050;-85
2023/03/15 08:13:38;;;;;;;3.53;1.15;;;3.90;99.90;;;;;;4833964;29;20486;-84
2023/03/15 08:16:04;;;;;;;7.13;1.50;;;4.10;99.90;;;;;;4850617;29;20096;-84
2023/03/15 08:18:30;;;;;;;3.67;0.95;;;3.30;99.90;;;;;;4842354;29;20048;-84
2023/03/15 08:20:56;;;;;;;7.95;1.33;;;4.60;99.90;;;;;;4848849;29;20087;-84
2023/03/15 08:23:22;;;;;;;6.40;1.40;;;5.00;99.90;;;;;;4839678;29;20057;-85
2023/03/15 08:25:49;;;;;;;10.68;1.92;;;;;;;;;;4855883;29;20623;-84
2023/03/15 08:28:16;;;;;;;8.23;1.50;;;5.40;99.90;;;;;;4857311;29;20498;-84
2023/03/15 08:30:42;;;;;;;9.05;1.80;;;4.30;99.90;;;;;;4842608;29;20109;-85
2023/03/15 08:33:08;;;;;;;5.68;1.67;;;6.20;99.90;;;;;;4857757;29;20050;-84
2023/03/15 08:35:34;;;;;;;7.95;1.50;;;;;;;;;;4857718;29;20539;-84
2023/03/15 08:38:01;;;;;;;8.90;1.90;;;6.20;99.90;;;;;;4857360;29;20049;-85
2023/03/15 08:40:28;;;;;;;5.95;1.42;;;6.20;99.90;;;;;;4857021;29;20124;-84
2023/03/15 08:42:55;;;;;;;7.82;2.00;;;6.40;99.90;;;;;;4850426;29;20490;-84
2023/03/15 08:45:25;;;;;;;4.03;1.38;;;6.50;99.90;;;;;;4853999;29;20128;-85
2023/03/15 08:47:58;;;;;;;4.60;1.55;;;6.50;99.90;;;;;;4853301;29;20081;-86
2023/03/15 08:50:34;;;;;;;8.13;1.90;;;6.70;99.90;;;;;;4865925;29;20053;-86
2023/03/15 08:53:00;;;;;;;;;;;6.70;99.90;;;;;;4870365;29;20046;-86
2023/03/15 08:55:26;;;;;;;7.10;1.80;;;6.90;99.90;;;;;;4851467;29;19999;-86
2023/03/15 08:57:52;;;;;;;9.90;1.40;;;7.00;99.90;;;;;;4853656;29;20061;-87
2023/03/15 09:00:22;;;;;;;4.70;1.40;;;7.40;99.90;;;;;;4853536;29;20498;-88
2023/03/15 09:02:50;;;;;;;6.85;1.40;;;7.30;99.90;;;;;;4859249;29;20041;-88
2023/03/15 09:05:17;;;;;;;4.80;1.25;;;7.20;99.90;;;;;;4855971;29;20490;-85
2023/03/15 09:07:44;;;;;;;8.75;1.25;;;7.30;99.90;;;;;;4853097;29;20100;-86
2023/03/15 09:10:13;;;;;;;5.55;1.45;;;7.60;99.90;;;;;;4859077;29;20057;-85
2023/03/15 09:12:52;;;;;;;5.30;1.10;;;7.40;99.90;;;;;;4859702;29;20054;-85
2023/03/15 09:15:18;;;;;;;7.72;1.42;;;9.10;99.90;;;;;;4852074;29;20049;-85
2023/03/15 09:17:44;;;;;;;6.40;1.33;;;7.70;99.90;;;;;;4857042;29;20685;-86
2023/03/15 09:20:17;;;;;;;5.47;1.20;;;8.30;99.90;;;;;;4853457;29;20073;-87
2023/03/15 09:22:49;;;;;;;4.97;1.15;;;8.20;99.90;;;;;;4855802;29;20121;-86
2023/03/15 09:25:18;;;;;;;6.68;1.38;;;8.40;99.90;;;;;;4870130;29;20067;-87
2023/03/15 09:27:54;;;;;;;8.23;1.30;;;8.90;99.90;;;;;;4861785;29;20101;-87
2023/03/15 09:30:24;;;;;;;4.93;1.40;;;9.00;99.90;;;;;;4866659;29;20049;-86
2023/03/15 09:32:50;;;;;;;4.68;1.40;;;9.00;99.90;;;;;;4855773;29;20052;-87
2023/03/15 09:35:19;;;;;;;6.40;1.55;;;8.90;99.90;;;;;;4875741;29;20129;-87
2023/03/15 09:37:45;;;;;;;7.93;1.58;;;9.00;99.90;;;;;;4864875;29;20056;-85
2023/03/15 09:40:28;;;;;;;6.13;1.45;;;9.10;99.90;;;;;;4856520;29;20056;-85
2023/03/15 09:43:07;;;;;;;6.22;1.20;;;9.10;99.90;;;;;;4866094;29;20063;-85
2023/03/15 09:46:06;;;;;;;6.35;1.40;;;9.20;99.90;;;;;;4861085;29;20091;-84
2023/03/15 09:48:51;;;;;;;5.93;1.50;;;9.30;99.90;;;;;;4879530;29;20104;-85
2023/03/15 09:51:35;;;;;;;6.38;1.55;;;9.40;99.90;;;;;;4874621;29;20049;-84
2023/03/15 09:54:12;;;;;;;6.90;1.33;;;9.60;99.90;;;;;;4871226;29;20077;-83
2023/03/15 09:56:44;;;;;;;4.70;1.50;;;9.80;99.90;;;;;;4870106;29;20151;-83
2023/03/15 09:59:15;;;;;;;9.65;1.65;;;9.70;99.90;;;;;;4869731;29;20132;-84
2023/03/15 10:01:42;;;;;;;4.70;1.40;;;9.60;99.90;;;;;;4859478;29;20124;-83
2023/03/15 10:04:19;;;;;;;6.70;1.40;;;9.50;99.90;;;;;;4846594;29;20053;-84
2023/03/15 10:06:56;;;;;;;6.88;1.52;;;9.60;99.90;;;;;;4854537;29;20054;-84
2023/03/15 10:09:28;;;;;;;11.75;1.80;;;9.60;99.90;;;;;;4859151;29;20041;-83
2023/03/15 10:12:10;;;;;;;9.40;1.63;;;9.70;99.90;;;;;;4852064;29;20126;-83
2023/03/15 10:15:13;;;;;;;8.88;1.77;;;9.70;99.90;;;;;;4855073;29;20072;-83
2023/03/15 10:18:12;;;;;;;4.32;1.20;;;9.60;99.90;;;;;;4850453;29;20097;-84
2023/03/15 10:20:46;;;;;;;6.28;1.60;;;10.50;99.90;;;;;;4817553;29;20540;-85
2023/03/15 10:23:42;;;;;;;7.30;1.77;;;9.60;99.90;;;;;;4860678;29;20872;-85
2023/03/15 10:26:12;;;;;;;5.37;1.33;;;9.60;99.90;;;;;;4862883;29;20133;-84
2023/03/15 10:28:39;;;;;;;6.13;1.58;;;9.60;99.90;;;;;;4856527;29;20057;-83
2023/03/15 10:31:13;;;;;;;7.32;1.65;;;9.70;99.90;;;;;;4850854;29;20077;-84
2023/03/15 10:33:40;;;;;;;6.68;1.63;;;9.10;99.90;;;;;;4860278;29;20053;-85
2023/03/15 10:36:21;;;;;;;6.88;1.80;;;9.80;99.90;;;;;;4834167;29;20084;-85
2023/03/15 10:38:49;;;;;;;6.85;1.70;;;9.80;99.90;;;;;;4863560;29;20136;-84
2023/03/15 10:41:36;;;;;;;5.90;1.35;;;9.90;99.90;;;;;;4835666;29;20053;-84
2023/03/15 10:44:05;;;;;;;6.57;1.65;;;10.10;99.90;;;;;;4863089;29;20053;-85
2023/03/15 10:46:34;;;;;;;5.50;1.58;;;10.80;99.90;;;;;;4861977;29;20081;-85
2023/03/15 10:49:08;;;;;;;3.42;1.00;;;10.20;99.90;;;;;;4861821;29;20128;-85
2023/03/15 10:51:57;;;;;;;6.15;1.30;;;10.20;99.90;;;;;;4852714;29;20053;-84
2023/03/15 10:54:23;;;;;;;8.75;1.40;;;10.10;99.90;;;;;;4851192;29;20192;-82
2023/03/15 10:57:03;;;;;;;6.05;1.33;;;9.40;99.90;;;;;;4861928;29;20052;-82
2023/03/15 10:59:33;;;;;;;9.35;1.70;;;9.90;99.90;;;;;;4851932;29;20096;-83
2023/03/15 11:02:11;;;;;;;6.18;1.40;;;9.90;99.90;;;;;;4849219;29;20634;-84
2023/03/15 11:05:13;;;;;;;10.02;1.50;;;9.90;99.50;;;;;;4855270;29;20049;-84
2023/03/15 11:07:59;;;;;;;7.38;1.50;;;9.90;99.30;;;;;;4863288;29;20132;-84
2023/03/15 11:10:26;;;;;;;;;;;9.90;99.20;;;;;;4864491;29;20084;-83
2023/03/15 11:13:12;;;;;;;4.65;1.50;;;10.00;99.30;;;;;;4866974;29;19931;-85
2023/03/15 11:15:48;;;;;;;4.20;1.20;;;10.30;99.40;;;;;;4844620;29;20068;-83
2023/03/15 11:18:19;;;;;;;7.80;1.50;;;10.50;99.40;;;;;;4853902;29;20494;-83
2023/03/15 11:20:45;;;;;;;4.13;1.30;;;11.90;99.20;;;;;;4855885;29;20064;-83
2023/03/15 11:23:24;;;;;;;4.90;1.52;;;10.90;99.40;;;;;;4850239;29;20496;-83
2023/03/15 11:25:50;;;;;;;4.43;1.30;;;11.00;98.90;;;;;;4865707;29;20053;-83
2023/03/15 11:28:30;;;;;;;5.35;1.50;;;10.90;98.70;;;;;;4863176;29;20049;-83
2023/03/15 11:31:00;;;;;;;5.07;1.50;;;11.20;98.60;;;;;;4853576;29;20204;-83
2023/03/15 11:34:21;;;;;;;4.10;1.20;;;11.10;99.20;;;;;;4854592;29;20132;-86
2023/03/15 11:36:52;;;;;;;5.53;1.60;;;11.30;98.30;;;;;;4801389;29;20060;-85
2023/03/15 11:39:31;;;;;;;3.03;1.25;;;11.50;98.60;;;;;;4856092;29;20053;-84
2023/03/15 11:42:04;;;;;;;4.43;1.00;;;11.60;97.80;;;;;;4851961;29;20080;-85
2023/03/15 11:44:47;;;;;;;4.07;0.95;;;11.70;97.60;;;;;;4856161;29;20049;-85
2023/03/15 11:47:38;;;;;;;6.70;2.08;;;11.70;97.20;;;;;;4869442;29;20635;-88
2023/03/15 11:50:05;;;;;;;5.47;1.45;;;12.00;96.60;;;;;;4854975;29;20102;-86
2023/03/15 11:52:31;;;;;;;5.03;1.17;;;12.00;97.00;;;;;;4855615;29;20144;-86
2023/03/15 11:54:59;;;;;;;7.28;1.95;;;12.10;97.00;;;;;;4862965;29;20063;-87
2023/03/15 11:57:31;;;;;;;6.10;1.58;;;12.30;96.30;;;;;;4872564;29;20080;-85
2023/03/15 12:00:14;;;;;;;2.70;1.00;;;12.30;95.70;;;;;;4857075;29;20050;-84
2023/03/15 12:02:52;;;;;;;4.25;1.50;;;12.50;96.00;;;;;;4866817;29;20061;-85
2023/03/15 12:05:44;;;;;;;5.35;1.30;;;12.50;94.70;;;;;;4864392;29;20049;-84
2023/03/15 12:08:21;;;;;;;10.52;1.55;;;12.80;94.50;;;;;;4855143;29;20136;-83
2023/03/15 12:10:49;;;;;;;6.95;1.40;;;13.10;94.20;;;;;;4847791;29;20072;-87
2023/03/15 12:13:25;;;;;;;4.25;1.25;;;12.60;94.40;;;;;;4863266;29;21388;-84
2023/03/15 12:15:52;;;;;;;7.38;1.35;;;13.40;94.50;;;;;;4848713;29;20072;-86
2023/03/15 12:18:21;;;;;;;6.25;1.70;;;13.60;94.80;;;;;;4847855;29;20201;-86
2023/03/15 12:21:05;;;;;;;7.95;1.60;;;13.60;94.80;;;;;;4853196;29;20053;-84
2023/03/15 12:23:37;;;;;;;6.03;1.48;;;13.60;93.70;;;;;;4850886;29;20049;-85
2023/03/15 12:26:04;;;;;;;4.90;1.20;;;13.50;93.70;;;;;;4849202;29;20056;-84
2023/03/15 12:28:42;;;;;;;5.78;1.30;;;13.70;94.00;;;;;;4850769;29;20485;-84
2023/03/15 12:31:14;;;;;;;6.93;1.98;;;13.60;93.00;;;;;;4851778;29;20053;-86
2023/03/15 12:33:48;;;;;;;4.97;1.10;;;13.60;93.00;;;;;;4846503;29;20054;-86
2023/03/15 12:36:20;;;;;;;6.13;1.27;;;13.70;92.80;;;;;;4850759;29;20050;-85
2023/03/15 12:39:13;;;;;;;4.85;1.35;;;14.00;92.40;;;;;;4843775;29;20101;-86
2023/03/15 12:41:42;;;;;;;5.45;1.10;;;14.00;91.70;;;;;;4840851;29;20144;-85
2023/03/15 12:44:35;;;;;;;6.10;1.30;;;14.10;91.70;;;;;;4850440;29;20268;-85
2023/03/15 12:47:11;;;;;;;3.50;1.17;;;14.10;91.30;;;;;;4842701;29;20065;-85
2023/03/15 12:49:38;;;;;;;;;;;14.20;90.20;;;;;;4838728;29;20050;-85
2023/03/15 12:52:10;;;;;;;3.80;1.17;;;14.20;90.30;;;;;;4856877;29;19927;-85
2023/03/15 12:54:51;;;;;;;4.53;1.10;;;13.90;89.30;;;;;;4854076;29;20106;-85
2023/03/15 12:57:34;;;;;;;5.00;1.33;;;13.70;88.00;;;;;;4855811;29;20482;-85
2023/03/15 13:00:14;;;;;;;3.67;1.00;;;13.00;88.30;;;;;;4841331;29;20061;-85
2023/03/15 13:03:02;;;;;;;4.68;1.55;;;13.40;89.10;;;;;;4861667;29;20061;-86
2023/03/15 13:05:48;;;;;;;4.03;1.25;;;13.20;89.20;;;;;;4847867;29;20550;-86
2023/03/15 13:08:21;;;;;;;5.10;1.20;;;13.00;90.60;;;;;;4813464;29;20091;-86
2023/03/15 13:10:50;;;;;;;5.05;1.52;;;13.10;90.90;;;;;;4857846;29;20046;-86
2023/03/15 13:13:35;;;;;;;4.45;1.10;;;12.90;91.10;;;;;;4865317;29;20513;-84